• Join FlightAware (Why Join?)
  • Login
  • US Flag 
Gobble Gobble! 
06:19PM EST


 

Airport Tracker/Info


-or-


 

Live Flight TrackerFlight Track Log ✈ QXE2384 ✈ 14-May-2013 ✈ KSEA - CYYJ

Flight Track Log - Related Links

Times and Time Zones

All times are in EDT time to prevent confusion due to time zone crossing. See the QXE2384 flight status page for this flight to view local times or setup timezone preferences in your user account.

Time Position Orientation Groundspeed Altitude Reporting Facility
EDT Latitude Longitude Course Direction KTS MPH feet Rate Location/Type
03:25PM 47.7578 -122.5895 331° Northwest  Level FlightAware Approximate
03:26PM 47.8132 -122.6358 331° Northwest  Level FlightAware Approximate
03:27PM 47.8667 -122.6866 321° Northwest  Level FlightAware Approximate
03:28PM 47.9162 -122.7461 321° Northwest  Level FlightAware Approximate
03:29PM 47.9700 -122.7959 332° Northwest  Level FlightAware Approximate
03:30PM 48.0259 -122.8412 330° Northwest  Level FlightAware Approximate
03:31PM 48.0810 -122.8884 330° Northwest  Level FlightAware Approximate
03:32PM 48.1361 -122.9361 326° Northwest  Level FlightAware Approximate
03:33PM 48.1889 -122.9889 326° Northwest  Level FlightAware Approximate
03:34PM 48.2434 -123.0380 332° Northwest  Level FlightAware Approximate
03:35PM 48.2995 -123.0829 332° Northwest  Level FlightAware Approximate
03:36PM 48.3524 -123.1358 326° Northwest  Level FlightAware Approximate
03:37PM 48.4002 -123.1836 326° Northwest  Level FlightAware Approximate
03:38PM 48.4532 -123.2365 326° Northwest  Level FlightAware Approximate
03:39PM 48.5068 -123.2879 336° Northwest  Level FlightAware Approximate
03:40PM 48.5544 -123.3378 327° Northwest  Level FlightAware Approximate
03:41PM 48.6074 -123.3908 327° Northwest  Level FlightAware Approximate
03:42PM 48.6333 -123.4167 327° Northwest  Level FlightAware Approximate
03:43PM 48.6469 -123.4258 327° Northwest  Level Estimated
03:44PM 48.6469 -123.4258 327° Northwest  Level Estimated
03:45PM 48.6469 -123.4258 327° Northwest  Level Estimated
03:46PM 48.6469 -123.4258 327° Northwest  Level Estimated
03:47PM 48.6469 -123.4258 327° Northwest  Level Estimated
03:48PM 48.6469 -123.4258 327° Northwest  Level Estimated
03:49PM 48.6469 -123.4258 327° Northwest  Level Estimated
03:50PM 48.6469 -123.4258 327° Northwest  Level Estimated
03:51PM 48.6469 -123.4258 327° Northwest  Level Estimated
03:52PM 48.6469 -123.4258 327° Northwest  Level Estimated
03:53PM 48.6469 -123.4258 327° Northwest  Level Estimated
03:54PM 48.6469 -123.4258 327° Northwest  Level Estimated
03:55PM 48.6469 -123.4258 327° Northwest  Level Estimated
03:56PM 48.6469 -123.4258 327° Northwest  Level Estimated
03:57PM 48.6469 -123.4258 327° Northwest  Level Estimated